Baltimore, Maryland
Traffic Map
Current Weather Conditions
Baltimore, Maryland
Overcast Light Rain
Overcast
12°
Feels Like: 12°
Wind Chill: 12° Ceiling: 6000
Heat Index: 12° Visibility: 8mi
Dew Point: 11° Wind: 8mph
Humidity: 94% Direction: 350° (N)
Pressure: 29.86in Gusts: 0mph
Raw Report DataKBWI 220911Z 35007KT 8SM -RA SCT011 OVC060 12/11 A2986 RMK AO2 P0000
Traffic Incident Summary
Active as of:
Severity:
Category:
InformationThere was an issue retrieving the traffic information for this location. Please try a different location or try again shortly.
Advertisements
Track Severe Weather on mobile